Time;durP1;ratioP1;P1;durP2;ratioP2;P2;SDS_P1;SDS_P2;PMS_P1;PMS_P2;Temp;Humidity;BMP_temperature;BMP_pressure;BME280_temperature;BME280_humidity;BME280_pressure;Samples;Min_cycle;Max_cycle;Signal;HPM_P1;HPM_P2
2021/11/06 00:00:13;;;;;;;2.60;1.73;;;12.70;99.90;;;;;;5098734;28;20514;-69
2021/11/06 00:02:44;;;;;;;3.47;2.00;;;12.70;99.90;;;;;;5100227;28;20476;-69
2021/11/06 00:05:15;;;;;;;2.80;1.50;;;12.60;99.90;;;;;;5104684;28;20488;-69
2021/11/06 00:07:46;;;;;;;1.37;1.17;;;12.50;99.90;;;;;;5103435;27;20602;-69
2021/11/06 00:10:18;;;;;;;1.60;1.10;;;12.50;99.90;;;;;;5099451;28;20508;-69
2021/11/06 00:12:49;;;;;;;5.13;1.50;;;12.50;99.90;;;;;;5100623;28;20542;-69
2021/11/06 00:15:22;;;;;;;1.63;1.37;;;12.40;99.90;;;;;;5100845;28;20455;-69
2021/11/06 00:17:53;;;;;;;2.60;1.40;;;12.30;99.90;;;;;;5099887;28;20965;-69
2021/11/06 00:20:24;;;;;;;2.70;1.70;;;12.10;99.90;;;;;;5092894;28;20494;-69
2021/11/06 00:22:55;;;;;;;5.40;1.63;;;12.00;99.90;;;;;;5101990;28;20571;-69
2021/11/06 00:25:27;;;;;;;4.03;2.37;;;12.00;99.90;;;;;;5109050;28;20987;-69
2021/11/06 00:27:58;;;;;;;2.90;1.90;;;11.90;99.90;;;;;;5101332;28;20508;-69
2021/11/06 00:30:31;;;;;;;3.47;1.70;;;11.80;99.90;;;;;;5105605;28;20865;-69
2021/11/06 00:33:02;;;;;;;3.53;2.20;;;11.80;99.90;;;;;;5097493;28;20546;-68
2021/11/06 00:35:33;;;;;;;2.20;1.50;;;11.80;99.90;;;;;;5098490;28;20454;-69
2021/11/06 00:38:05;;;;;;;3.07;1.90;;;11.70;99.90;;;;;;5100103;28;20831;-69
2021/11/06 00:40:36;;;;;;;4.50;1.40;;;11.40;99.90;;;;;;5106546;28;20492;-68
2021/11/06 00:43:07;;;;;;;3.70;1.50;;;11.20;99.90;;;;;;5091826;28;20512;-68
2021/11/06 00:45:40;;;;;;;2.20;1.90;;;11.10;99.90;;;;;;5090071;28;20450;-68
2021/11/06 00:48:11;;;;;;;4.00;3.10;;;11.00;99.90;;;;;;5095186;28;20529;-68
2021/11/06 00:50:42;;;;;;;5.23;2.90;;;10.90;99.90;;;;;;5094193;28;20508;-68
2021/11/06 00:53:13;;;;;;;3.07;2.77;;;10.70;99.90;;;;;;5107490;28;20583;-68
2021/11/06 00:55:45;;;;;;;4.00;3.10;;;10.60;99.90;;;;;;5099624;28;20455;-68
2021/11/06 00:58:16;;;;;;;3.43;1.80;;;10.60;99.90;;;;;;5103594;28;20943;-68
2021/11/06 01:00:48;;;;;;;3.37;2.20;;;10.50;99.90;;;;;;5102032;28;20476;-68
2021/11/06 01:03:19;;;;;;;5.00;2.27;;;10.40;99.90;;;;;;5109979;28;20469;-68
2021/11/06 01:05:50;;;;;;;2.80;2.10;;;10.40;99.90;;;;;;5101967;28;20450;-68
2021/11/06 01:08:22;;;;;;;1.90;1.70;;;10.30;99.90;;;;;;5105971;28;20458;-68
2021/11/06 01:10:53;;;;;;;1.90;1.70;;;10.20;99.90;;;;;;5089683;28;20507;-69
2021/11/06 01:13:24;;;;;;;2.20;1.93;;;10.20;99.90;;;;;;5099587;28;20596;-70
2021/11/06 01:15:57;;;;;;;2.90;2.33;;;10.00;99.90;;;;;;5098212;28;20969;-69
2021/11/06 01:18:28;;;;;;;4.50;2.20;;;9.90;99.90;;;;;;5090203;28;20447;-68
2021/11/06 01:20:59;;;;;;;3.33;2.83;;;9.80;99.90;;;;;;5091973;28;20926;-69
2021/11/06 01:23:30;;;;;;;6.85;3.15;;;9.70;99.90;;;;;;5098217;28;20446;-68
2021/11/06 01:26:02;;;;;;;4.88;3.10;;;9.70;99.90;;;;;;5097798;28;20218;-68
2021/11/06 01:28:33;;;;;;;4.10;2.85;;;9.60;99.90;;;;;;5102868;28;20682;-69
2021/11/06 01:31:06;;;;;;;13.97;3.23;;;9.60;99.90;;;;;;5101167;28;20208;-69
2021/11/06 01:33:37;;;;;;;4.72;2.92;;;9.50;99.90;;;;;;5110274;28;20563;-69
2021/11/06 01:36:08;;;;;;;3.17;2.85;;;9.40;99.90;;;;;;5092911;28;20203;-68
2021/11/06 01:38:42;;;;;;;4.47;2.55;;;9.30;99.90;;;;;;5111262;28;20224;-68
2021/11/06 01:41:14;;;;;;;3.83;2.85;;;9.20;99.90;;;;;;5102206;28;20216;-68
2021/11/06 01:43:45;;;;;;;5.50;3.17;;;9.10;99.90;;;;;;5092685;28;20212;-68
2021/11/06 01:46:18;;;;;;;6.32;3.50;;;9.00;99.90;;;;;;5111070;28;20654;-68
2021/11/06 01:48:49;;;;;;;6.10;3.25;;;9.00;99.90;;;;;;5091909;28;20208;-68
2021/11/06 01:51:20;;;;;;;3.65;3.00;;;9.00;99.90;;;;;;5103674;28;20213;-68
2021/11/06 01:53:52;;;;;;;6.33;3.33;;;8.90;99.90;;;;;;5100894;28;20238;-68
2021/11/06 01:56:23;;;;;;;4.85;3.30;;;8.90;99.90;;;;;;5089443;28;20446;-68
2021/11/06 01:58:54;;;;;;;4.18;3.78;;;8.80;99.90;;;;;;5101756;28;20276;-68
2021/11/06 02:01:27;;;;;;;5.22;3.20;;;8.80;99.90;;;;;;5109127;28;20280;-68
2021/11/06 02:03:58;;;;;;;4.95;3.38;;;8.80;99.90;;;;;;5104906;28;20720;-68
2021/11/06 02:06:29;;;;;;;6.68;3.80;;;8.70;99.90;;;;;;5104121;28;20247;-67
2021/11/06 02:09:00;;;;;;;6.18;4.90;;;8.50;99.90;;;;;;5107470;28;20211;-68
2021/11/06 02:11:32;;;;;;;9.90;5.82;;;8.50;99.90;;;;;;5097554;28;20251;-67
2021/11/06 02:14:03;;;;;;;10.93;6.72;;;8.50;99.90;;;;;;5103773;28;20609;-68
2021/11/06 02:16:36;;;;;;;9.30;6.78;;;8.40;99.90;;;;;;5101602;28;20238;-68
2021/11/06 02:19:07;;;;;;;8.70;6.80;;;8.40;99.90;;;;;;5098960;28;20288;-68
2021/11/06 02:21:40;;;;;;;8.27;6.53;;;8.40;99.90;;;;;;5105958;28;20205;-68
2021/11/06 02:24:11;;;;;;;11.85;7.05;;;8.20;99.90;;;;;;5098578;28;20240;-67
2021/11/06 02:26:43;;;;;;;7.57;6.72;;;8.20;99.90;;;;;;5100818;28;20247;-68
2021/11/06 02:29:14;;;;;;;7.32;6.63;;;8.10;99.90;;;;;;5098404;28;20286;-67
2021/11/06 02:31:46;;;;;;;10.60;7.45;;;8.00;99.90;;;;;;5106307;28;20549;-68
2021/11/06 02:34:17;;;;;;;7.30;6.60;;;8.00;99.90;;;;;;5104575;28;20300;-67
2021/11/06 02:36:49;;;;;;;11.68;8.90;;;8.00;99.90;;;;;;5097457;28;20744;-67
2021/11/06 02:39:23;;;;;;;8.95;7.30;;;7.90;99.90;;;;;;5096500;28;20216;-68
2021/11/06 02:42:01;;;;;;;11.52;6.80;;;7.90;99.90;;;;;;5106167;28;20211;-67
2021/11/06 02:44:32;;;;;;;13.32;7.65;;;7.80;99.90;;;;;;5097936;28;20219;-67
2021/11/06 02:47:04;;;;;;;10.52;7.47;;;7.80;99.90;;;;;;5098220;28;20235;-67
2021/11/06 02:49:35;;;;;;;8.80;7.68;;;7.70;99.90;;;;;;5086117;28;20617;-68
2021/11/06 02:52:08;;;;;;;8.65;7.75;;;7.70;99.90;;;;;;5089596;28;20351;-67
2021/11/06 02:54:40;;;;;;;16.33;9.50;;;7.60;99.90;;;;;;5098572;28;20361;-67
2021/11/06 02:57:12;;;;;;;11.35;9.15;;;7.70;99.90;;;;;;5088536;28;20696;-68
2021/11/06 02:59:43;;;;;;;10.38;8.93;;;7.70;99.90;;;;;;5087404;28;20231;-68
2021/11/06 03:02:14;;;;;;;12.38;9.95;;;7.70;99.90;;;;;;5089621;28;20244;-67
2021/11/06 03:04:45;;;;;;;10.85;9.35;;;7.60;99.90;;;;;;5088284;28;20216;-68
2021/11/06 03:07:18;;;;;;;9.50;8.55;;;7.60;99.90;;;;;;5102101;28;20215;-67
2021/11/06 03:09:49;;;;;;;12.10;9.55;;;7.50;99.90;;;;;;5099092;28;20687;-68
2021/11/06 03:12:21;;;;;;;10.73;9.70;;;7.50;99.90;;;;;;5108076;28;20265;-68
2021/11/06 03:14:52;;;;;;;13.80;8.73;;;7.50;99.90;;;;;;5106485;28;20241;-67
2021/11/06 03:17:23;;;;;;;12.23;10.68;;;7.50;99.90;;;;;;5098898;28;20274;-67
2021/11/06 03:19:58;;;;;;;11.95;10.20;;;7.50;99.90;;;;;;5098389;28;20222;-67
2021/11/06 03:22:31;;;;;;;13.90;10.98;;;7.50;99.90;;;;;;5097817;28;20679;-67
2021/11/06 03:25:03;;;;;;;14.88;10.32;;;7.50;99.90;;;;;;5091024;28;20212;-68
2021/11/06 03:27:34;;;;;;;10.52;9.43;;;7.50;99.90;;;;;;5105219;28;20273;-67
2021/11/06 03:30:08;;;;;;;12.98;10.77;;;7.50;99.90;;;;;;5099735;28;20216;-67
2021/11/06 03:32:39;;;;;;;10.65;9.65;;;7.50;99.90;;;;;;5103839;28;20320;-68
2021/11/06 03:35:10;;;;;;;11.50;9.68;;;7.60;99.90;;;;;;5104489;28;20354;-67
2021/11/06 03:37:43;;;;;;;12.38;10.50;;;7.50;99.90;;;;;;5110887;28;20277;-67
2021/11/06 03:40:15;;;;;;;13.65;10.32;;;7.50;99.90;;;;;;5106439;28;20272;-67
2021/11/06 03:42:46;;;;;;;13.93;10.02;;;7.50;99.90;;;;;;5103386;28;20212;-68
2021/11/06 03:45:17;;;;;;;13.63;9.85;;;7.50;99.90;;;;;;5105486;28;20265;-68
2021/11/06 03:47:49;;;;;;;13.15;10.30;;;7.50;99.90;;;;;;5102675;28;20216;-67
2021/11/06 03:50:20;;;;;;;13.27;10.32;;;7.40;99.90;;;;;;5109381;28;20742;-67
2021/11/06 03:52:52;;;;;;;13.32;10.15;;;7.40;99.90;;;;;;5096822;28;20229;-67
2021/11/06 03:55:23;;;;;;;12.82;11.20;;;7.40;99.90;;;;;;5095502;28;20557;-67
2021/11/06 03:57:55;;;;;;;12.63;10.43;;;7.40;99.90;;;;;;5103267;28;20216;-67
2021/11/06 04:00:26;;;;;;;11.15;10.05;;;7.40;99.90;;;;;;5096680;28;20227;-67
2021/11/06 04:02:57;;;;;;;13.90;11.63;;;7.30;99.90;;;;;;5097961;28;20297;-68
2021/11/06 04:05:28;;;;;;;11.77;10.57;;;7.30;99.90;;;;;;5091235;28;20259;-68
2021/11/06 04:08:01;;;;;;;12.38;11.05;;;7.40;99.90;;;;;;5100992;28;20208;-68
2021/11/06 04:10:32;;;;;;;17.08;12.43;;;7.30;99.90;;;;;;5099241;28;20620;-67
2021/11/06 04:13:04;;;;;;;12.00;10.55;;;7.30;99.90;;;;;;5098281;28;20212;-68
2021/11/06 04:15:35;;;;;;;12.15;10.55;;;7.20;99.90;;;;;;5102463;28;20743;-67
2021/11/06 04:18:06;;;;;;;14.52;12.25;;;7.20;99.90;;;;;;5106586;28;20300;-67
2021/11/06 04:20:37;;;;;;;13.50;12.10;;;7.20;99.90;;;;;;5098739;28;20247;-67
2021/11/06 04:23:10;;;;;;;16.23;11.88;;;7.10;99.90;;;;;;5098046;28;20244;-67
2021/11/06 04:25:41;;;;;;;29.48;24.55;;;7.10;99.90;;;;;;5089970;28;20270;-67
2021/11/06 04:28:12;;;;;;;24.25;19.08;;;7.20;99.90;;;;;;5102954;28;20358;-68
2021/11/06 04:30:43;;;;;;;22.20;19.80;;;7.40;99.90;;;;;;5110148;28;20216;-70
2021/11/06 04:33:14;;;;;;;22.58;20.17;;;7.40;99.90;;;;;;5111604;28;20235;-67
2021/11/06 04:35:45;;;;;;;22.33;18.40;;;7.50;99.90;;;;;;5102813;28;20247;-68
2021/11/06 04:38:18;;;;;;;20.80;18.65;;;7.50;99.90;;;;;;5111403;28;20385;-68
2021/11/06 04:40:49;;;;;;;22.55;18.13;;;7.60;99.90;;;;;;5109581;28;20254;-68
2021/11/06 04:43:20;;;;;;;22.77;20.38;;;7.60;99.90;;;;;;5099604;28;20715;-68
2021/11/06 04:45:51;;;;;;;25.55;19.48;;;7.70;99.90;;;;;;5110642;28;20306;-68
2021/11/06 04:48:22;;;;;;;21.15;19.05;;;7.80;99.90;;;;;;5109001;28;20311;-68
2021/11/06 04:50:53;;;;;;;20.95;18.65;;;7.80;99.90;;;;;;5108306;28;20650;-68
2021/11/06 04:53:26;;;;;;;21.17;18.50;;;7.80;99.90;;;;;;5106424;28;20223;-68
2021/11/06 04:55:59;;;;;;;20.90;18.70;;;7.90;99.90;;;;;;5110889;28;20215;-68
2021/11/06 04:58:30;;;;;;;20.17;17.38;;;7.90;99.90;;;;;;5103553;28;20298;-68
2021/11/06 05:01:01;;;;;;;22.33;18.17;;;7.90;99.90;;;;;;5102383;28;20302;-68
2021/11/06 05:03:32;;;;;;;18.35;15.77;;;8.00;99.90;;;;;;5110996;28;20257;-68
2021/11/06 05:06:03;;;;;;;18.95;15.43;;;8.10;99.90;;;;;;5102500;28;20716;-68
2021/11/06 05:08:35;;;;;;;17.45;15.75;;;8.10;99.90;;;;;;5109535;28;20272;-68
2021/11/06 05:11:06;;;;;;;15.25;13.73;;;8.10;99.90;;;;;;5098741;28;20209;-68
2021/11/06 05:13:37;;;;;;;14.93;13.25;;;8.10;99.90;;;;;;5101680;28;20243;-68
2021/11/06 05:16:08;;;;;;;15.23;13.73;;;8.20;99.90;;;;;;5102966;28;21009;-68
2021/11/06 05:18:40;;;;;;;14.23;12.82;;;8.20;99.90;;;;;;5110767;28;20640;-68
2021/11/06 05:21:11;;;;;;;14.48;12.52;;;8.20;99.90;;;;;;5098421;28;20376;-68
2021/11/06 05:23:43;;;;;;;14.93;12.45;;;8.20;99.90;;;;;;5105518;28;20251;-68
2021/11/06 05:26:14;;;;;;;14.30;12.50;;;8.30;99.90;;;;;;5090501;28;20671;-68
2021/11/06 05:28:46;;;;;;;10.82;8.65;;;8.40;99.90;;;;;;5099620;28;20212;-68
2021/11/06 05:31:19;;;;;;;8.30;7.20;;;8.40;99.90;;;;;;5103608;28;20208;-68
2021/11/06 05:33:50;;;;;;;9.45;6.32;;;8.40;99.90;;;;;;5106947;28;20240;-68
2021/11/06 05:36:21;;;;;;;7.18;5.53;;;8.60;99.90;;;;;;5098189;28;20244;-68
2021/11/06 05:38:54;;;;;;;9.05;8.15;;;8.70;99.90;;;;;;5099348;28;20328;-68
2021/11/06 05:41:25;;;;;;;10.80;9.88;;;8.70;99.90;;;;;;5104679;28;20696;-69
2021/11/06 05:43:58;;;;;;;9.77;8.85;;;8.70;99.90;;;;;;5111007;28;20212;-69
2021/11/06 05:46:30;;;;;;;9.43;8.40;;;8.60;99.90;;;;;;5093587;28;20314;-69
2021/11/06 05:49:00;;;;;;;6.82;6.13;;;8.60;99.90;;;;;;5095228;28;20227;-69
2021/11/06 05:51:39;;;;;;;6.35;4.35;;;8.60;99.90;;;;;;5111012;28;20215;-68
2021/11/06 05:54:13;;;;;;;3.90;3.60;;;8.50;99.90;;;;;;5103161;28;20626;-69
2021/11/06 05:56:44;;;;;;;2.60;2.35;;;8.50;99.90;;;;;;5098231;28;20245;-70
2021/11/06 05:59:15;;;;;;;4.30;2.95;;;8.40;99.90;;;;;;5097884;28;20323;-70
2021/11/06 06:01:46;;;;;;;2.90;2.30;;;8.30;99.90;;;;;;5089129;28;20224;-69
2021/11/06 06:04:17;;;;;;;4.25;2.92;;;8.20;99.90;;;;;;5105905;28;20642;-70
2021/11/06 06:06:48;;;;;;;3.20;2.50;;;8.20;99.90;;;;;;5107521;28;20274;-69
2021/11/06 06:09:21;;;;;;;3.72;3.42;;;8.10;99.90;;;;;;5105330;28;20247;-68
2021/11/06 06:11:52;;;;;;;3.00;2.80;;;8.10;99.90;;;;;;5098622;28;20239;-69
2021/11/06 06:14:23;;;;;;;2.08;1.98;;;8.00;99.90;;;;;;5102128;28;20320;-69
2021/11/06 06:16:54;;;;;;;1.85;1.67;;;8.10;99.90;;;;;;5087265;28;20246;-69
2021/11/06 06:19:25;;;;;;;4.90;2.22;;;8.10;99.90;;;;;;5098693;28;20208;-69
2021/11/06 06:21:56;;;;;;;1.90;1.80;;;8.00;99.90;;;;;;5093847;28;20670;-69
2021/11/06 06:24:29;;;;;;;2.78;1.60;;;8.00;99.90;;;;;;5101182;28;20669;-69
2021/11/06 06:27:00;;;;;;;2.30;2.17;;;8.00;99.90;;;;;;5099054;28;20649;-69
2021/11/06 06:29:31;;;;;;;3.25;1.90;;;8.00;99.90;;;;;;5109475;28;20211;-69
2021/11/06 06:32:02;;;;;;;3.83;2.38;;;8.00;99.90;;;;;;5090314;28;20251;-69
2021/11/06 06:34:34;;;;;;;3.10;2.25;;;8.00;99.90;;;;;;5105205;28;20259;-69
2021/11/06 06:37:05;;;;;;;2.50;2.30;;;8.00;99.90;;;;;;5101692;28;20705;-69
2021/11/06 06:39:38;;;;;;;2.28;2.15;;;8.00;99.90;;;;;;5102238;28;20580;-69
2021/11/06 06:42:09;;;;;;;3.55;2.75;;;8.00;99.90;;;;;;5094094;28;20254;-70
2021/11/06 06:44:40;;;;;;;3.33;3.13;;;8.00;99.90;;;;;;5107743;28;20247;-69
2021/11/06 06:47:12;;;;;;;3.28;2.97;;;8.00;99.90;;;;;;5104375;28;20258;-69
2021/11/06 06:49:45;;;;;;;5.97;2.90;;;8.00;99.90;;;;;;5105336;28;20215;-69
2021/11/06 06:52:16;;;;;;;2.92;2.60;;;8.10;99.90;;;;;;5097352;28;20265;-69
2021/11/06 06:54:48;;;;;;;3.03;2.83;;;8.00;99.90;;;;;;5103647;28;20319;-69
2021/11/06 06:57:19;;;;;;;4.47;3.00;;;8.00;99.90;;;;;;5098181;28;20295;-69
2021/11/06 06:59:50;;;;;;;3.47;3.13;;;8.00;99.90;;;;;;5106514;28;20314;-69
2021/11/06 07:02:21;;;;;;;4.13;3.72;;;8.00;99.90;;;;;;5113593;28;20266;-69
2021/11/06 07:04:52;;;;;;;3.90;3.58;;;8.00;99.90;;;;;;5102244;28;20264;-67
2021/11/06 07:07:23;;;;;;;5.15;3.38;;;8.00;99.90;;;;;;5108331;28;20250;-69
2021/11/06 07:09:56;;;;;;;6.43;3.30;;;8.10;99.90;;;;;;5102536;28;20239;-68
2021/11/06 07:12:29;;;;;;;3.70;3.33;;;8.00;99.90;;;;;;5098214;28;20298;-68
2021/11/06 07:15:00;;;;;;;3.55;3.25;;;8.00;99.90;;;;;;5113139;28;20307;-68
2021/11/06 07:17:37;;;;;;;4.15;3.50;;;8.00;99.90;;;;;;5109765;28;20322;-68
2021/11/06 07:20:10;;;;;;;5.68;3.80;;;8.00;99.90;;;;;;5104337;28;20251;-69
2021/11/06 07:22:40;;;;;;;5.30;3.40;;;8.00;99.90;;;;;;5099568;28;20219;-68
2021/11/06 07:25:13;;;;;;;3.70;3.40;;;8.00;99.90;;;;;;5099854;28;20247;-68
2021/11/06 07:27:44;;;;;;;4.10;3.50;;;8.10;99.90;;;;;;5093680;28;20286;-68
2021/11/06 07:30:17;;;;;;;3.80;3.50;;;8.10;99.90;;;;;;5105348;28;20280;-68
2021/11/06 07:32:47;;;;;;;3.58;3.35;;;8.10;99.90;;;;;;5101358;28;20216;-68
2021/11/06 07:35:19;;;;;;;4.20;3.80;;;8.10;99.90;;;;;;5100074;28;20669;-68
2021/11/06 07:37:50;;;;;;;6.10;4.88;;;8.10;99.90;;;;;;5099083;28;20300;-68
2021/11/06 07:40:23;;;;;;;5.50;4.07;;;8.10;99.90;;;;;;5091966;28;20303;-68
2021/11/06 07:42:54;;;;;;;3.10;2.80;;;8.20;99.90;;;;;;5093030;28;20291;-68
2021/11/06 07:45:25;;;;;;;2.83;2.42;;;8.20;99.90;;;;;;5091503;28;20212;-68
2021/11/06 07:47:56;;;;;;;3.20;2.60;;;8.00;99.90;;;;;;5098543;28;20244;-68
2021/11/06 07:50:27;;;;;;;3.90;3.10;;;8.10;99.90;;;;;;5106441;28;20254;-68
2021/11/06 07:52:58;;;;;;;2.83;2.50;;;8.10;99.90;;;;;;5097085;28;20311;-68
2021/11/06 07:55:31;;;;;;;3.30;3.00;;;8.10;99.90;;;;;;5089711;28;20224;-68
2021/11/06 07:58:02;;;;;;;4.05;3.00;;;8.10;99.90;;;;;;5091386;28;20299;-68
2021/11/06 08:00:33;;;;;;;2.90;2.70;;;8.10;99.90;;;;;;5091472;28;20270;-68
2021/11/06 08:03:04;;;;;;;3.22;3.00;;;8.10;99.90;;;;;;5100527;28;20272;-68
2021/11/06 08:05:35;;;;;;;3.45;3.15;;;8.10;99.90;;;;;;5099099;28;20662;-68
2021/11/06 08:08:07;;;;;;;3.85;2.92;;;8.10;99.90;;;;;;5091296;28;20250;-68
2021/11/06 08:10:40;;;;;;;4.25;3.10;;;8.10;99.90;;;;;;5109283;28;20294;-68
2021/11/06 08:13:12;;;;;;;2.92;2.72;;;8.00;99.90;;;;;;5090860;28;20247;-68
2021/11/06 08:15:43;;;;;;;4.53;3.13;;;8.00;99.90;;;;;;5092651;28;20330;-69
2021/11/06 08:18:14;;;;;;;3.85;2.90;;;8.00;99.90;;;;;;5098302;28;20303;-68
2021/11/06 08:20:45;;;;;;;3.20;3.00;;;8.10;99.90;;;;;;5099632;28;20249;-68
2021/11/06 08:23:19;;;;;;;3.30;2.88;;;8.10;99.90;;;;;;5098682;28;20654;-68
2021/11/06 08:25:52;;;;;;;2.60;2.38;;;8.10;99.90;;;;;;5090521;28;20232;-68
2021/11/06 08:28:23;;;;;;;3.50;2.10;;;8.20;99.90;;;;;;5106614;28;20269;-68
2021/11/06 08:30:54;;;;;;;2.67;2.47;;;8.20;99.90;;;;;;5101378;28;20244;-68
2021/11/06 08:33:25;;;;;;;3.40;2.70;;;8.20;99.90;;;;;;5109478;28;20219;-68
2021/11/06 08:35:56;;;;;;;2.88;2.67;;;8.30;99.90;;;;;;5100684;28;20318;-68
2021/11/06 08:38:27;;;;;;;3.00;2.58;;;8.20;99.90;;;;;;5098510;28;20661;-68
2021/11/06 08:41:00;;;;;;;2.53;2.30;;;8.20;99.90;;;;;;5102598;28;20677;-68
2021/11/06 08:43:31;;;;;;;2.85;2.45;;;8.30;99.90;;;;;;5112207;28;20243;-68
2021/11/06 08:46:04;;;;;;;2.78;2.58;;;8.30;99.90;;;;;;5101476;28;20231;-68
2021/11/06 08:48:35;;;;;;;2.58;2.30;;;8.30;99.90;;;;;;5109048;28;20295;-68
2021/11/06 08:51:06;;;;;;;2.90;2.70;;;8.20;99.90;;;;;;5108207;28;20632;-68
2021/11/06 08:53:37;;;;;;;2.40;2.20;;;8.20;99.90;;;;;;5107943;28;20302;-68
2021/11/06 08:56:10;;;;;;;2.50;2.30;;;8.20;99.90;;;;;;5088475;28;20319;-68
2021/11/06 08:58:41;;;;;;;2.78;2.58;;;8.20;99.90;;;;;;5102544;28;20255;-68
2021/11/06 09:01:12;;;;;;;3.30;3.00;;;8.30;99.90;;;;;;5102353;28;20239;-68
2021/11/06 09:03:43;;;;;;;2.33;2.13;;;8.20;99.90;;;;;;5109489;28;20644;-69
2021/11/06 09:06:14;;;;;;;2.58;2.38;;;8.10;99.90;;;;;;5112325;28;20739;-68
2021/11/06 09:08:46;;;;;;;3.17;2.70;;;8.10;99.90;;;;;;5094136;28;20640;-68
2021/11/06 09:11:19;;;;;;;3.00;2.38;;;8.10;99.90;;;;;;5112392;28;20216;-68
2021/11/06 09:13:54;;;;;;;2.70;2.50;;;8.10;99.90;;;;;;5092417;28;20694;-68
2021/11/06 09:16:25;;;;;;;4.80;2.20;;;8.10;99.90;;;;;;5091664;28;20259;-68
2021/11/06 09:18:56;;;;;;;3.50;2.35;;;8.10;99.90;;;;;;5091032;28;20212;-69
2021/11/06 09:21:29;;;;;;;2.92;2.20;;;8.10;99.90;;;;;;5105045;28;20715;-68
2021/11/06 09:24:02;;;;;;;2.50;2.30;;;8.10;99.90;;;;;;5097246;28;20239;-68
2021/11/06 09:26:37;;;;;;;2.85;2.65;;;8.10;99.90;;;;;;5103151;28;20250;-68
2021/11/06 09:29:08;;;;;;;2.40;2.20;;;8.10;99.90;;;;;;5099655;28;20275;-68
2021/11/06 09:31:40;;;;;;;5.55;3.13;;;8.20;99.90;;;;;;5089417;28;20248;-68
2021/11/06 09:34:12;;;;;;;2.38;2.17;;;8.20;99.90;;;;;;5098673;28;20299;-68
2021/11/06 09:36:43;;;;;;;3.05;2.60;;;8.20;99.90;;;;;;5097927;28;20747;-68
2021/11/06 09:39:16;;;;;;;3.08;2.70;;;8.30;99.90;;;;;;5106280;28;20269;-69
2021/11/06 09:41:49;;;;;;;3.33;2.55;;;8.30;99.90;;;;;;5107711;28;20211;-68
2021/11/06 09:44:20;;;;;;;4.10;2.60;;;8.20;99.90;;;;;;5105655;28;20216;-72
2021/11/06 09:46:53;;;;;;;2.88;2.67;;;8.20;99.90;;;;;;5089129;28;20208;-69
2021/11/06 09:49:24;;;;;;;2.60;2.40;;;8.30;99.90;;;;;;5103139;28;20258;-68
2021/11/06 09:51:55;;;;;;;3.35;2.58;;;8.40;99.90;;;;;;5100839;28;20213;-69
2021/11/06 09:54:26;;;;;;;2.53;2.33;;;8.40;99.90;;;;;;5105939;28;20279;-69
2021/11/06 09:56:59;;;;;;;2.35;2.15;;;8.40;99.90;;;;;;5100186;28;20251;-75
2021/11/06 09:59:32;;;;;;;3.72;2.58;;;8.40;99.90;;;;;;5113087;28;20338;-69
2021/11/06 10:02:04;;;;;;;3.78;2.33;;;8.50;99.90;;;;;;5101657;28;20324;-68
2021/11/06 10:04:35;;;;;;;2.88;2.63;;;8.50;99.90;;;;;;5100903;28;20324;-69
2021/11/06 10:07:19;;;;;;;4.35;2.55;;;8.40;99.90;;;;;;5102942;28;20757;-69
2021/11/06 10:10:01;;;;;;;2.33;2.22;;;8.40;99.90;;;;;;5106594;28;20243;-71
2021/11/06 10:12:48;;;;;;;3.13;2.83;;;8.40;99.90;;;;;;5094817;28;20304;-74
2021/11/06 10:15:21;;;;;;;2.47;2.28;;;8.40;99.90;;;;;;5102771;28;20258;-69
2021/11/06 10:17:52;;;;;;;2.83;2.60;;;8.30;99.90;;;;;;5095453;28;20262;-69
2021/11/06 10:20:34;;;;;;;2.60;2.40;;;8.30;99.90;;;;;;5088956;28;20304;-71
2021/11/06 10:23:07;;;;;;;3.42;2.60;;;8.30;99.90;;;;;;5096117;28;20281;-69
2021/11/06 10:25:40;;;;;;;2.33;2.17;;;8.30;99.90;;;;;;5087966;28;20220;-69
2021/11/06 10:28:14;;;;;;;2.95;2.70;;;8.40;99.90;;;;;;5102742;28;20208;-70
2021/11/06 10:30:47;;;;;;;2.35;2.15;;;8.40;99.90;;;;;;5108761;28;20310;-75
2021/11/06 10:33:20;;;;;;;3.45;2.15;;;8.40;99.90;;;;;;5105001;28;20307;-69
2021/11/06 10:35:52;;;;;;;3.42;1.80;;;8.50;99.90;;;;;;5088776;28;20737;-70
2021/11/06 10:38:28;;;;;;;2.10;2.00;;;8.50;99.90;;;;;;5108190;28;20227;-69
2021/11/06 10:41:02;;;;;;;2.67;2.47;;;8.60;99.90;;;;;;5098228;28;20219;-70
2021/11/06 10:43:36;;;;;;;2.20;2.08;;;8.60;99.90;;;;;;5099648;28;20246;-69
2021/11/06 10:46:13;;;;;;;2.47;2.30;;;8.70;99.90;;;;;;5096927;28;20254;-71
2021/11/06 10:48:46;;;;;;;2.30;2.10;;;8.70;99.90;;;;;;5106221;28;20264;-75
2021/11/06 10:51:17;;;;;;;2.70;2.50;;;8.70;99.90;;;;;;5103009;28;20367;-73
2021/11/06 10:53:50;;;;;;;2.00;1.90;;;8.70;99.90;;;;;;5088680;28;20298;-69
2021/11/06 10:56:27;;;;;;;2.00;1.90;;;8.70;99.90;;;;;;5095565;28;20254;-69
2021/11/06 10:59:01;;;;;;;1.98;1.83;;;8.80;99.90;;;;;;5101700;28;20246;-69
2021/11/06 11:01:34;;;;;;;1.75;1.60;;;8.80;99.90;;;;;;5110473;28;20326;-70
2021/11/06 11:04:08;;;;;;;2.47;1.88;;;8.90;99.90;;;;;;5106679;28;20528;-70
2021/11/06 11:06:48;;;;;;;2.80;2.60;;;8.90;99.90;;;;;;5088628;28;20292;-69
2021/11/06 11:09:20;;;;;;;2.20;2.10;;;8.90;99.90;;;;;;5098331;28;20583;-69
2021/11/06 11:11:53;;;;;;;2.67;1.90;;;8.90;99.90;;;;;;5097813;28;20304;-74
2021/11/06 11:14:26;;;;;;;1.73;1.63;;;8.90;99.90;;;;;;5103654;28;20228;-73
2021/11/06 11:16:59;;;;;;;2.70;1.85;;;8.90;99.90;;;;;;5097063;28;20247;-70
2021/11/06 11:19:36;;;;;;;2.55;2.13;;;8.90;99.90;;;;;;5104743;28;20322;-74
2021/11/06 11:22:08;;;;;;;2.20;2.00;;;9.00;99.90;;;;;;5101706;28;20740;-70
2021/11/06 11:24:39;;;;;;;1.80;1.70;;;8.90;99.90;;;;;;5099415;28;20307;-69
2021/11/06 11:27:10;;;;;;;2.80;2.10;;;8.90;99.90;;;;;;5093306;28;20247;-69
2021/11/06 11:29:43;;;;;;;2.60;1.90;;;8.90;99.90;;;;;;5108053;28;20321;-71
2021/11/06 11:32:16;;;;;;;2.00;1.80;;;8.90;99.90;;;;;;5097551;28;20244;-71
2021/11/06 11:34:48;;;;;;;1.98;1.88;;;8.90;99.90;;;;;;5097256;28;20258;-74
2021/11/06 11:37:19;;;;;;;2.30;2.10;;;8.90;99.90;;;;;;5096630;28;20315;-69
2021/11/06 11:39:53;;;;;;;3.00;2.80;;;8.90;99.90;;;;;;5098126;28;20307;-68
2021/11/06 11:42:39;;;;;;;2.88;2.40;;;8.80;99.90;;;;;;5109721;28;20315;-69
2021/11/06 11:45:27;;;;;;;2.97;2.25;;;8.90;99.90;;;;;;5101037;28;20227;-70
2021/11/06 11:48:04;;;;;;;2.60;2.40;;;8.90;99.90;;;;;;5097615;28;20208;-68
2021/11/06 11:50:38;;;;;;;2.95;2.70;;;8.90;99.90;;;;;;5107812;28;20243;-70
2021/11/06 11:53:12;;;;;;;2.40;2.30;;;8.90;99.90;;;;;;5099612;28;20242;-69
2021/11/06 11:55:46;;;;;;;4.10;2.42;;;8.90;99.90;;;;;;5103548;28;20311;-67
2021/11/06 11:58:20;;;;;;;2.97;2.60;;;8.90;99.90;;;;;;5115851;28;20283;-67
2021/11/06 12:00:55;;;;;;;3.53;3.10;;;8.80;99.90;;;;;;5105298;28;20215;-72
2021/11/06 12:03:39;;;;;;;2.50;2.30;;;8.90;99.90;;;;;;5112577;28;20325;-68
2021/11/06 12:06:31;;;;;;;2.78;2.58;;;8.90;99.90;;;;;;5111542;28;20276;-70
2021/11/06 12:09:23;;;;;;;2.67;2.22;;;8.90;99.90;;;;;;5103230;28;20251;-69
2021/11/06 12:11:56;;;;;;;3.08;2.83;;;8.90;99.90;;;;;;5091095;28;20222;-69
2021/11/06 12:14:30;;;;;;;3.10;2.90;;;8.90;99.90;;;;;;5100501;28;20220;-70
2021/11/06 12:17:04;;;;;;;3.20;2.83;;;8.90;99.90;;;;;;5103647;28;20251;-67
2021/11/06 12:19:41;;;;;;;2.95;2.65;;;8.90;99.90;;;;;;5103656;28;20259;-69
2021/11/06 12:22:18;;;;;;;2.70;2.50;;;9.00;99.90;;;;;;5103936;28;20314;-72
2021/11/06 12:24:50;;;;;;;3.60;2.17;;;9.00;99.90;;;;;;5096214;28;20382;-71
2021/11/06 12:27:36;;;;;;;2.70;2.50;;;8.90;99.90;;;;;;5106353;28;20298;-73
2021/11/06 12:30:08;;;;;;;2.83;2.63;;;8.90;99.90;;;;;;5099223;28;20248;-69
2021/11/06 12:32:47;;;;;;;2.50;2.28;;;9.00;99.90;;;;;;5098107;28;20219;-73
2021/11/06 12:35:25;;;;;;;3.08;2.20;;;9.00;99.90;;;;;;5096868;28;20319;-68
2021/11/06 12:38:01;;;;;;;2.40;2.20;;;9.00;99.90;;;;;;5110022;28;20311;-67
2021/11/06 12:40:56;;;;;;;1.90;1.80;;;9.00;99.90;;;;;;5103126;28;20294;-68
2021/11/06 12:43:31;;;;;;;2.60;2.40;;;9.00;99.90;;;;;;5092376;28;20254;-68
2021/11/06 12:46:18;;;;;;;1.88;1.77;;;9.10;99.90;;;;;;5101815;28;20212;-71
2021/11/06 12:48:51;;;;;;;1.98;1.60;;;9.00;99.90;;;;;;5102552;28;20236;-70
2021/11/06 12:51:23;;;;;;;1.23;1.13;;;9.00;99.90;;;;;;5096431;28;20351;-67
2021/11/06 12:54:02;;;;;;;1.40;1.30;;;9.00;99.90;;;;;;5099618;28;20674;-66
2021/11/06 12:56:40;;;;;;;1.45;1.17;;;9.00;99.90;;;;;;5100935;28;20342;-67
2021/11/06 12:59:12;;;;;;;0.82;0.82;;;9.00;99.90;;;;;;5110729;27;20223;-68
2021/11/06 13:01:45;;;;;;;0.77;0.70;;;9.00;99.90;;;;;;5108625;28;20269;-68
2021/11/06 13:04:19;;;;;;;1.23;0.70;;;9.00;99.90;;;;;;5098361;28;20303;-69
2021/11/06 13:06:51;;;;;;;1.13;1.02;;;9.00;99.90;;;;;;5090110;28;20311;-72
2021/11/06 13:09:23;;;;;;;0.73;0.73;;;9.00;99.90;;;;;;5106378;28;20633;-68
2021/11/06 13:12:02;;;;;;;1.98;0.90;;;9.00;99.90;;;;;;5112131;28;20211;-70
2021/11/06 13:14:45;;;;;;;1.48;1.30;;;9.00;99.90;;;;;;5097057;28;20333;-72
2021/11/06 13:17:19;;;;;;;1.15;1.00;;;9.00;99.90;;;;;;5112173;28;20682;-68
2021/11/06 13:19:55;;;;;;;1.00;1.00;;;8.90;99.90;;;;;;5101516;28;20254;-68